createdAt,value
2024-02-13T00:00:29.133Z,85.30
2024-02-13T00:02:56.186Z,85.40
2024-02-13T00:05:23.271Z,85.50
2024-02-13T00:07:50.512Z,85.50
2024-02-13T00:10:17.657Z,85.60
2024-02-13T00:12:44.605Z,85.60
2024-02-13T00:15:20.075Z,85.50
2024-02-13T00:17:52.721Z,85.70
2024-02-13T00:20:19.962Z,85.80
2024-02-13T00:22:50.139Z,85.60
2024-02-13T00:25:18.829Z,85.50
2024-02-13T00:27:46.027Z,85.50
2024-02-13T00:30:13.534Z,85.50
2024-02-13T00:32:40.780Z,85.50
2024-02-13T00:35:10.045Z,85.40
2024-02-13T00:37:40.555Z,85.50
2024-02-13T00:40:11.694Z,85.50
2024-02-13T00:42:39.083Z,85.30
2024-02-13T00:45:08.877Z,85.30
2024-02-13T00:47:36.222Z,85.20
2024-02-13T00:50:04.288Z,85.20
2024-02-13T00:52:31.261Z,85.20
2024-02-13T00:54:59.732Z,85.20
2024-02-13T00:57:26.717Z,85.20
2024-02-13T00:59:54.352Z,85.30
2024-02-13T01:02:21.564Z,85.20
2024-02-13T01:04:49.671Z,85.20
2024-02-13T01:07:19.101Z,85.20
2024-02-13T01:09:46.332Z,85.20
2024-02-13T01:12:13.308Z,85.20
2024-02-13T01:14:40.447Z,85.10
2024-02-13T01:17:07.560Z,85.10
2024-02-13T01:19:34.591Z,85.20
2024-02-13T01:22:02.498Z,85.10
2024-02-13T01:24:30.628Z,85.30
2024-02-13T01:26:59.249Z,85.50
2024-02-13T01:29:26.721Z,88.20
2024-02-13T01:31:55.171Z,88.10
2024-02-13T01:34:22.988Z,87.80
2024-02-13T01:36:50.091Z,87.60
2024-02-13T01:39:16.994Z,87.40
2024-02-13T01:41:44.129Z,87.10
2024-02-13T01:44:11.119Z,87.10
2024-02-13T01:46:38.587Z,86.90
2024-02-13T01:49:05.836Z,86.70
2024-02-13T01:51:36.247Z,86.80
2024-02-13T01:54:06.474Z,86.60
2024-02-13T01:56:35.233Z,86.30
2024-02-13T01:59:05.087Z,84.80
2024-02-13T02:01:33.716Z,84.40
2024-02-13T02:04:01.990Z,84.30
2024-02-13T02:06:29.378Z,84.20
2024-02-13T02:08:58.037Z,84.30
2024-02-13T02:11:26.900Z,84.30
2024-02-13T02:13:54.220Z,84.30
2024-02-13T02:16:21.362Z,84.30
2024-02-13T02:18:48.446Z,84.50
2024-02-13T02:21:18.492Z,84.60
2024-02-13T02:23:45.465Z,84.60
2024-02-13T02:26:12.460Z,84.60
2024-02-13T02:28:39.502Z,86.70
2024-02-13T02:31:06.994Z,87.60
2024-02-13T02:33:36.425Z,87.40
2024-02-13T02:36:03.482Z,87.40
2024-02-13T02:38:30.460Z,87.00
2024-02-13T02:40:57.634Z,87.10
2024-02-13T02:43:24.691Z,86.80
2024-02-13T02:45:51.685Z,85.60
2024-02-13T02:48:19.890Z,86.10
2024-02-13T02:50:46.990Z,87.00
2024-02-13T02:53:14.179Z,86.90
2024-02-13T02:55:42.145Z,86.80
2024-02-13T02:58:09.864Z,85.70
2024-02-13T03:00:37.109Z,85.80
2024-02-13T03:03:06.923Z,86.50
2024-02-13T03:05:34.909Z,85.60
2024-02-13T03:08:01.982Z,85.00
2024-02-13T03:10:29.424Z,84.80
2024-02-13T03:12:56.783Z,84.50
2024-02-13T03:15:23.839Z,84.60
2024-02-13T03:17:51.227Z,85.00
2024-02-13T03:20:18.277Z,86.50
2024-02-13T03:22:45.272Z,86.90
2024-02-13T03:25:12.188Z,86.90
2024-02-13T03:27:39.166Z,86.80
2024-02-13T03:30:07.248Z,86.80
2024-02-13T03:32:34.272Z,86.50
2024-02-13T03:35:03.816Z,86.50
2024-02-13T03:37:30.709Z,86.40
2024-02-13T03:39:57.599Z,86.30
2024-02-13T03:42:24.520Z,86.10
2024-02-13T03:44:51.533Z,86.10
2024-02-13T03:47:19.521Z,86.00
2024-02-13T03:49:46.954Z,85.90
2024-02-13T03:52:13.858Z,85.80
2024-02-13T03:54:40.882Z,85.80
2024-02-13T03:57:07.853Z,85.80
2024-02-13T03:59:34.883Z,85.70
2024-02-13T04:02:03.448Z,85.80
2024-02-13T04:04:31.904Z,85.60
2024-02-13T04:06:58.835Z,85.70
2024-02-13T04:09:25.848Z,85.70
2024-02-13T04:11:52.955Z,85.60
2024-02-13T04:14:19.971Z,85.50
2024-02-13T04:16:46.879Z,85.60
2024-02-13T04:19:13.908Z,85.50
2024-02-13T04:21:40.889Z,85.50
2024-02-13T04:24:08.936Z,85.30
2024-02-13T04:26:45.057Z,85.30
2024-02-13T04:29:12.123Z,85.30
2024-02-13T04:31:40.047Z,85.20
2024-02-13T04:34:08.014Z,85.10
2024-02-13T04:36:38.901Z,85.10
2024-02-13T04:39:08.267Z,85.00
2024-02-13T04:41:35.342Z,85.00
2024-02-13T04:44:03.892Z,85.00
2024-02-13T04:46:30.942Z,85.00
2024-02-13T04:48:58.869Z,84.80
2024-02-13T04:51:25.873Z,85.00
2024-02-13T04:53:53.107Z,84.90
2024-02-13T04:56:20.212Z,84.80
2024-02-13T04:58:47.221Z,84.70
2024-02-13T05:01:15.933Z,84.50
2024-02-13T05:04:03.506Z,84.50
2024-02-13T05:06:49.526Z,84.50
2024-02-13T05:09:16.755Z,84.50
2024-02-13T05:11:43.996Z,84.50
2024-02-13T05:14:11.140Z,84.50
2024-02-13T05:16:42.747Z,84.30
2024-02-13T05:19:10.049Z,84.50
2024-02-13T05:21:37.307Z,84.30
2024-02-13T05:24:05.062Z,84.30
2024-02-13T05:26:32.765Z,84.20
2024-02-13T05:29:00.348Z,84.40
2024-02-13T05:31:28.435Z,84.30
2024-02-13T05:33:55.803Z,84.30
2024-02-13T05:36:22.914Z,84.30
2024-02-13T05:38:51.922Z,84.20
2024-02-13T05:41:18.972Z,84.20
2024-02-13T05:43:45.939Z,84.20
2024-02-13T05:46:14.735Z,84.20
2024-02-13T05:48:45.600Z,84.00
2024-02-13T05:51:15.696Z,84.10
2024-02-13T05:53:46.076Z,83.80
2024-02-13T05:56:23.359Z,84.00
2024-02-13T05:58:54.606Z,83.80
2024-02-13T06:01:21.819Z,83.90
2024-02-13T06:03:49.685Z,83.90
2024-02-13T06:06:17.289Z,83.90
2024-02-13T06:08:44.367Z,83.90
2024-02-13T06:11:11.356Z,83.80
2024-02-13T06:13:41.623Z,83.90
2024-02-13T06:16:09.002Z,83.90
2024-02-13T06:18:36.078Z,83.90
2024-02-13T06:21:03.266Z,83.80
2024-02-13T06:23:31.365Z,83.80
2024-02-13T06:25:59.365Z,83.90
2024-02-13T06:28:26.324Z,83.90
2024-02-13T06:30:53.271Z,84.00
2024-02-13T06:33:20.320Z,83.90
2024-02-13T06:35:47.355Z,84.00
2024-02-13T06:38:14.298Z,83.90
2024-02-13T06:40:41.496Z,84.10
2024-02-13T06:43:08.395Z,84.10
2024-02-13T06:45:36.094Z,84.20
2024-02-13T06:48:03.329Z,84.00
2024-02-13T06:50:30.390Z,83.90
2024-02-13T06:52:57.560Z,84.00
2024-02-13T06:55:28.066Z,83.90
2024-02-13T06:57:55.006Z,84.20
2024-02-13T07:00:22.165Z,84.20
2024-02-13T07:02:49.135Z,84.00
2024-02-13T07:05:16.285Z,84.00
2024-02-13T07:07:47.642Z,83.90
2024-02-13T07:10:17.458Z,84.00
2024-02-13T07:12:45.510Z,83.90
2024-02-13T07:15:13.225Z,83.90
2024-02-13T07:20:14.109Z,83.80
2024-02-13T07:22:41.760Z,83.70
2024-02-13T07:25:10.259Z,83.60
2024-02-13T07:27:43.342Z,83.60
2024-02-13T07:30:12.061Z,83.60
2024-02-13T07:32:41.111Z,83.60
2024-02-13T07:35:09.018Z,83.60
2024-02-13T07:37:36.136Z,83.60
2024-02-13T07:40:03.982Z,83.60
2024-02-13T07:42:31.058Z,83.60
2024-02-13T07:45:02.567Z,83.60
2024-02-13T07:47:30.252Z,83.60
2024-02-13T07:49:59.644Z,83.50
2024-02-13T07:52:27.029Z,83.50
2024-02-13T07:54:54.156Z,83.50
2024-02-13T07:57:21.150Z,83.50
2024-02-13T07:59:55.946Z,83.50
2024-02-13T08:02:25.057Z,83.50
2024-02-13T08:04:53.321Z,83.50
2024-02-13T08:07:20.711Z,83.50
2024-02-13T08:09:47.915Z,83.60
2024-02-13T08:12:17.186Z,83.50
2024-02-13T08:14:44.427Z,83.50
2024-02-13T08:17:12.714Z,83.60
2024-02-13T08:19:42.198Z,84.10
2024-02-13T08:22:09.845Z,84.00
2024-02-13T08:24:37.286Z,83.90
2024-02-13T08:27:07.042Z,83.90
2024-02-13T08:29:34.376Z,83.90
2024-02-13T08:32:02.270Z,83.90
2024-02-13T08:34:29.426Z,83.80
2024-02-13T08:36:57.308Z,83.80
2024-02-13T08:39:24.463Z,83.70
2024-02-13T08:41:52.578Z,83.70
2024-02-13T08:44:20.669Z,83.70
2024-02-13T08:46:47.628Z,83.70
2024-02-13T08:49:15.264Z,83.60
2024-02-13T08:51:42.578Z,83.60
2024-02-13T08:54:14.120Z,83.60
2024-02-13T08:56:41.673Z,83.60
2024-02-13T08:59:12.175Z,83.60
2024-02-13T09:01:39.170Z,83.70
2024-02-13T09:04:06.189Z,83.60
2024-02-13T09:06:34.191Z,83.70
2024-02-13T09:09:03.497Z,83.50
2024-02-13T09:11:33.065Z,83.70
2024-02-13T09:14:00.526Z,83.70
2024-02-13T09:16:27.539Z,83.90
2024-02-13T09:18:57.537Z,83.90
2024-02-13T09:21:25.790Z,83.80
2024-02-13T09:23:53.122Z,83.80
2024-02-13T09:26:20.393Z,83.90
2024-02-13T09:28:47.438Z,83.80
2024-02-13T09:31:15.702Z,83.80
2024-02-13T09:33:43.372Z,83.70
2024-02-13T09:36:15.760Z,83.80
2024-02-13T09:38:43.781Z,84.50
2024-02-13T09:41:12.101Z,84.60
2024-02-13T09:43:45.213Z,84.60
2024-02-13T09:46:18.079Z,84.80
2024-02-13T09:48:50.082Z,84.90
2024-02-13T09:51:19.769Z,84.80
2024-02-13T09:53:48.724Z,84.80
2024-02-13T09:56:16.381Z,84.70
2024-02-13T09:58:45.435Z,84.60
2024-02-13T10:01:12.408Z,84.60
2024-02-13T10:03:40.106Z,84.60
2024-02-13T10:06:14.106Z,84.70
2024-02-13T10:08:42.116Z,85.00
2024-02-13T10:11:13.718Z,84.80
2024-02-13T10:13:46.157Z,84.90
2024-02-13T10:16:25.305Z,85.00
2024-02-13T10:18:53.898Z,85.20
2024-02-13T10:21:27.714Z,85.20
2024-02-13T10:24:10.670Z,85.30
2024-02-13T10:26:38.975Z,85.30
2024-02-13T10:29:06.526Z,85.30
2024-02-13T10:31:36.698Z,85.10
2024-02-13T10:34:08.909Z,85.20
2024-02-13T10:36:43.087Z,85.20
2024-02-13T10:39:13.642Z,85.10
2024-02-13T10:41:43.384Z,85.20
2024-02-13T10:44:15.441Z,85.20
2024-02-13T10:46:43.766Z,85.00
2024-02-13T10:49:55.414Z,85.10
2024-02-13T10:52:23.192Z,85.00
2024-02-13T10:54:50.669Z,85.00
2024-02-13T10:57:18.243Z,85.00
2024-02-13T10:59:46.461Z,85.20
2024-02-13T11:02:17.209Z,85.00
2024-02-13T11:04:45.224Z,85.00
2024-02-13T11:07:12.783Z,84.90
2024-02-13T11:09:40.054Z,84.90
2024-02-13T11:12:08.725Z,84.90
2024-02-13T11:14:35.803Z,84.80
2024-02-13T11:17:04.824Z,84.60
2024-02-13T11:19:46.011Z,84.60
2024-02-13T11:22:16.848Z,84.50
2024-02-13T11:24:54.868Z,84.60
2024-02-13T11:27:29.747Z,84.60
2024-02-13T11:30:00.212Z,84.50
2024-02-13T11:32:30.118Z,84.40
2024-02-13T11:35:02.813Z,84.40
2024-02-13T11:37:30.080Z,84.40
2024-02-13T11:39:59.502Z,84.40
2024-02-13T11:42:35.862Z,84.90
2024-02-13T11:45:04.771Z,85.20
2024-02-13T11:47:32.763Z,85.00
2024-02-13T11:50:00.618Z,84.90
2024-02-13T11:52:30.472Z,84.80
2024-02-13T11:54:57.836Z,84.80
2024-02-13T11:57:27.649Z,84.50
2024-02-13T12:00:02.876Z,84.50
2024-02-13T12:02:31.490Z,84.50
2024-02-13T12:04:58.567Z,84.50
2024-02-13T12:07:25.600Z,84.60
2024-02-13T12:09:55.354Z,84.50
2024-02-13T12:12:22.716Z,84.60
2024-02-13T12:14:54.120Z,84.50
2024-02-13T12:17:22.832Z,84.50
2024-02-13T12:19:50.573Z,84.50
2024-02-13T12:22:18.815Z,84.50
2024-02-13T12:24:47.975Z,84.60
2024-02-13T12:27:16.812Z,84.60
2024-02-13T12:29:49.327Z,84.60
2024-02-13T12:32:21.668Z,84.60
2024-02-13T12:34:50.762Z,84.60
2024-02-13T12:37:21.954Z,84.80
2024-02-13T12:39:49.432Z,84.90
2024-02-13T12:42:18.938Z,85.20
2024-02-13T12:44:46.325Z,85.50
2024-02-13T12:47:15.084Z,85.50
2024-02-13T12:49:46.396Z,85.60
2024-02-13T12:52:18.567Z,85.40
2024-02-13T12:54:48.552Z,85.20
2024-02-13T12:57:16.241Z,85.10
2024-02-13T12:59:45.405Z,85.00
2024-02-13T13:02:15.480Z,85.10
2024-02-13T13:04:42.731Z,86.60
2024-02-13T13:07:10.588Z,86.80
2024-02-13T13:09:39.854Z,86.60
2024-02-13T13:12:09.711Z,86.40
2024-02-13T13:14:39.454Z,85.90
2024-02-13T13:17:08.894Z,86.10
2024-02-13T13:19:36.423Z,86.20
2024-02-13T13:22:04.425Z,85.90
2024-02-13T13:24:33.178Z,85.90
2024-02-13T13:27:10.547Z,85.90
2024-02-13T13:29:42.751Z,85.80
2024-02-13T13:32:11.056Z,85.90
2024-02-13T13:34:38.755Z,87.00
2024-02-13T13:37:06.175Z,86.70
2024-02-13T13:39:33.105Z,86.10
2024-02-13T13:42:09.404Z,85.90
2024-02-13T13:44:36.987Z,85.80
2024-02-13T13:47:04.035Z,85.70
2024-02-13T13:49:31.437Z,85.50
2024-02-13T13:51:58.470Z,85.60
2024-02-13T13:54:25.474Z,86.70
2024-02-13T13:56:52.552Z,87.70
2024-02-13T13:59:19.814Z,86.50
2024-02-13T14:01:46.877Z,86.60
2024-02-13T14:04:16.805Z,86.00
2024-02-13T14:06:43.907Z,86.20
2024-02-13T14:09:10.935Z,85.90
2024-02-13T14:11:38.784Z,86.40
2024-02-13T14:14:06.747Z,85.80
2024-02-13T14:16:33.649Z,85.60
2024-02-13T14:19:00.847Z,86.20
2024-02-13T14:21:29.697Z,87.60
2024-02-13T14:23:58.422Z,88.10
2024-02-13T14:26:25.643Z,87.80
2024-02-13T14:28:53.216Z,86.10
2024-02-13T14:31:20.195Z,86.30
2024-02-13T14:33:50.566Z,86.30
2024-02-13T14:36:19.780Z,85.90
2024-02-13T14:38:46.989Z,85.80
2024-02-13T14:41:16.555Z,85.80
2024-02-13T14:43:43.882Z,85.60
2024-02-13T14:46:11.435Z,85.90
2024-02-13T14:48:39.121Z,86.00
2024-02-13T14:51:07.402Z,85.60
2024-02-13T14:53:34.462Z,85.60
2024-02-13T14:56:02.091Z,85.70
2024-02-13T14:58:38.385Z,85.60
2024-02-13T15:01:09.545Z,85.30
2024-02-13T15:03:36.673Z,85.30
2024-02-13T15:06:03.799Z,85.30
2024-02-13T15:08:33.747Z,85.20
2024-02-13T15:11:00.880Z,85.30
2024-02-13T15:13:27.853Z,85.20
2024-02-13T15:15:55.828Z,85.20
2024-02-13T15:18:23.890Z,85.20
2024-02-13T15:20:51.103Z,85.30
2024-02-13T15:23:18.315Z,85.10
2024-02-13T15:25:45.398Z,85.20
2024-02-13T15:28:13.362Z,85.80
2024-02-13T15:30:40.332Z,86.50
2024-02-13T15:33:07.900Z,87.10
2024-02-13T15:35:43.429Z,87.50
2024-02-13T15:38:54.963Z,87.20
2024-02-13T15:41:40.535Z,87.40
2024-02-13T15:44:26.192Z,87.20
2024-02-13T15:46:59.891Z,87.10
2024-02-13T15:49:27.465Z,87.20
2024-02-13T15:51:55.146Z,87.30
2024-02-13T15:54:22.080Z,86.90
2024-02-13T15:56:50.269Z,85.90
2024-02-13T15:59:18.606Z,85.80
2024-02-13T16:01:47.173Z,85.60
2024-02-13T16:04:17.445Z,85.50
2024-02-13T16:06:47.288Z,85.50
2024-02-13T16:09:14.365Z,85.60
2024-02-13T16:11:41.421Z,85.60
2024-02-13T16:14:08.352Z,86.10
2024-02-13T16:16:37.279Z,87.20
2024-02-13T16:19:05.718Z,87.40
2024-02-13T16:21:33.208Z,87.40
2024-02-13T16:24:00.289Z,87.50
2024-02-13T16:26:28.488Z,87.40
2024-02-13T16:28:55.495Z,87.20
2024-02-13T16:31:23.293Z,86.50
2024-02-13T16:33:51.389Z,86.00
2024-02-13T16:36:20.172Z,85.80
2024-02-13T16:38:47.126Z,85.60
2024-02-13T16:41:18.314Z,85.60
2024-02-13T16:43:47.781Z,85.60
2024-02-13T16:46:18.473Z,85.50
2024-02-13T16:48:45.779Z,85.50
2024-02-13T16:51:13.892Z,85.30
2024-02-13T16:53:42.317Z,85.30
2024-02-13T16:56:09.389Z,85.50
2024-02-13T16:58:36.346Z,86.00
2024-02-13T17:01:06.901Z,86.90
2024-02-13T17:03:34.076Z,87.50
2024-02-13T17:06:05.055Z,87.20
2024-02-13T17:08:32.362Z,87.80
2024-02-13T17:10:59.748Z,88.40
2024-02-13T17:13:26.832Z,88.70
2024-02-13T17:15:55.499Z,88.60
2024-02-13T17:18:23.233Z,88.30
2024-02-13T17:20:50.523Z,86.90
2024-02-13T17:23:17.501Z,86.50
2024-02-13T17:25:46.850Z,87.60
2024-02-13T17:28:15.923Z,88.20
2024-02-13T17:30:44.023Z,88.00
2024-02-13T17:33:12.946Z,86.90
2024-02-13T17:35:40.027Z,86.40
2024-02-13T17:38:07.074Z,86.10
2024-02-13T17:40:33.981Z,85.90
2024-02-13T17:43:00.945Z,85.90
2024-02-13T17:45:27.929Z,85.70
2024-02-13T17:47:55.635Z,85.70
2024-02-13T17:50:22.667Z,85.70
2024-02-13T17:52:49.669Z,85.70
2024-02-13T17:55:20.443Z,85.70
2024-02-13T17:57:48.205Z,85.70
2024-02-13T18:00:20.780Z,85.60
2024-02-13T18:02:48.135Z,85.50
2024-02-13T18:05:15.365Z,85.70
2024-02-13T18:07:45.636Z,85.60
2024-02-13T18:10:12.842Z,85.50
2024-02-13T18:12:43.308Z,85.40
2024-02-13T18:15:11.849Z,85.30
2024-02-13T18:17:38.910Z,85.50
2024-02-13T18:20:06.738Z,85.40
2024-02-13T18:22:33.773Z,86.40
2024-02-13T18:25:00.765Z,85.90
2024-02-13T18:27:27.723Z,85.50
2024-02-13T18:29:54.886Z,85.50
2024-02-13T18:32:22.172Z,85.60
2024-02-13T18:34:49.204Z,86.10
2024-02-13T18:37:19.223Z,85.90
2024-02-13T18:39:49.168Z,85.70
2024-02-13T18:42:17.235Z,85.60
2024-02-13T18:44:45.452Z,85.30
2024-02-13T18:47:15.198Z,85.40
2024-02-13T18:49:43.002Z,85.50
2024-02-13T18:52:10.143Z,85.40
2024-02-13T18:54:38.619Z,85.40
2024-02-13T18:57:07.730Z,85.40
2024-02-13T18:59:35.132Z,85.40
2024-02-13T19:02:02.265Z,85.30
2024-02-13T19:04:29.663Z,85.20
2024-02-13T19:06:57.043Z,85.30
2024-02-13T19:09:24.126Z,85.30
2024-02-13T19:11:53.012Z,85.20
2024-02-13T19:14:24.199Z,85.40
2024-02-13T19:16:52.527Z,85.70
2024-02-13T19:19:19.790Z,85.30
2024-02-13T19:21:47.533Z,85.40
2024-02-13T19:24:14.898Z,85.90
2024-02-13T19:26:42.204Z,86.30
2024-02-13T19:29:09.632Z,86.10
2024-02-13T19:31:36.570Z,85.80
2024-02-13T19:34:03.773Z,85.70
2024-02-13T19:36:34.008Z,85.80
2024-02-13T19:39:01.142Z,85.90
2024-02-13T19:41:28.756Z,85.80
2024-02-13T19:43:55.816Z,85.70
2024-02-13T19:46:23.089Z,85.80
2024-02-13T19:48:51.766Z,85.80
2024-02-13T19:51:19.102Z,85.60
2024-02-13T19:53:46.842Z,85.70
2024-02-13T19:56:15.950Z,85.70
2024-02-13T19:58:43.882Z,85.60
2024-02-13T20:01:12.539Z,85.50
2024-02-13T20:03:40.457Z,85.60
2024-02-13T20:06:07.818Z,85.60
2024-02-13T20:08:35.090Z,85.50
2024-02-13T20:11:02.220Z,85.60
2024-02-13T20:13:29.291Z,85.50
2024-02-13T20:15:56.375Z,85.50
2024-02-13T20:18:26.296Z,85.50
2024-02-13T20:20:53.719Z,85.50
2024-02-13T20:23:21.030Z,85.60
2024-02-13T20:25:47.985Z,85.50
2024-02-13T20:28:15.485Z,85.90
2024-02-13T20:30:45.054Z,86.70
2024-02-13T20:33:14.390Z,87.10
2024-02-13T20:35:45.806Z,87.10
2024-02-13T20:38:12.802Z,87.70
2024-02-13T20:40:39.917Z,87.20
2024-02-13T20:43:06.866Z,86.50
2024-02-13T20:45:35.653Z,86.50
2024-02-13T20:48:04.106Z,86.40
2024-02-13T20:50:31.102Z,86.30
2024-02-13T20:52:58.110Z,86.20
2024-02-13T20:55:25.109Z,86.30
2024-02-13T20:57:56.824Z,86.00
2024-02-13T21:00:24.547Z,86.00
2024-02-13T21:02:51.659Z,85.90
2024-02-13T21:05:23.065Z,86.00
2024-02-13T21:07:52.717Z,85.90
2024-02-13T21:10:20.422Z,86.00
2024-02-13T21:12:49.827Z,85.90
2024-02-13T21:15:17.114Z,85.80
2024-02-13T21:17:44.626Z,85.80
2024-02-13T21:20:13.264Z,85.70
2024-02-13T21:22:58.883Z,85.70
2024-02-13T21:25:26.317Z,85.70
2024-02-13T21:27:53.582Z,85.70
2024-02-13T21:30:20.483Z,85.90
2024-02-13T21:32:48.582Z,86.30
2024-02-13T21:35:16.939Z,86.30
2024-02-13T21:37:44.308Z,86.20
2024-02-13T21:40:13.501Z,86.20
2024-02-13T21:42:41.433Z,86.90
2024-02-13T21:45:09.519Z,86.60
2024-02-13T21:47:42.325Z,86.50
2024-02-13T21:50:10.725Z,86.50
2024-02-13T21:52:38.650Z,86.40
2024-02-13T21:55:06.548Z,86.40
2024-02-13T21:57:33.559Z,86.20
2024-02-13T22:00:04.849Z,86.30
2024-02-13T22:02:32.506Z,86.20
2024-02-13T22:04:59.664Z,86.30
2024-02-13T22:07:27.946Z,86.20
2024-02-13T22:09:57.884Z,86.20
2024-02-13T22:12:25.293Z,86.20
2024-02-13T22:14:52.517Z,86.20
2024-02-13T22:17:19.537Z,86.10
2024-02-13T22:19:46.639Z,86.50
2024-02-13T22:22:13.813Z,86.60
2024-02-13T22:24:40.720Z,87.20
2024-02-13T22:27:07.915Z,87.60
2024-02-13T22:29:35.106Z,87.80
2024-02-13T22:32:04.726Z,87.90
2024-02-13T22:34:31.685Z,88.10
2024-02-13T22:36:58.721Z,87.60
2024-02-13T22:39:25.710Z,87.80
2024-02-13T22:41:53.367Z,87.90
2024-02-13T22:44:20.738Z,87.90
2024-02-13T22:46:47.748Z,87.70
2024-02-13T22:49:14.912Z,87.70
2024-02-13T22:51:45.089Z,87.70
2024-02-13T22:54:12.677Z,87.60
2024-02-13T22:56:39.920Z,87.30
2024-02-13T22:59:08.086Z,87.30
2024-02-13T23:01:35.363Z,87.60
2024-02-13T23:04:05.574Z,87.70
2024-02-13T23:06:33.023Z,87.60
2024-02-13T23:09:04.789Z,87.60
2024-02-13T23:11:33.134Z,87.40
2024-02-13T23:14:00.593Z,87.50
2024-02-13T23:16:27.657Z,87.30
2024-02-13T23:18:55.448Z,87.40
2024-02-13T23:21:22.680Z,87.30
2024-02-13T23:23:49.739Z,87.20
2024-02-13T23:26:17.489Z,87.20
2024-02-13T23:28:52.506Z,87.30
2024-02-13T23:31:25.708Z,87.10
2024-02-13T23:33:54.775Z,87.10
2024-02-13T23:36:22.101Z,87.10
2024-02-13T23:38:49.202Z,87.00
2024-02-13T23:41:16.557Z,86.90
2024-02-13T23:43:43.997Z,86.90
2024-02-13T23:46:10.901Z,86.60
2024-02-13T23:48:38.781Z,86.10
2024-02-13T23:51:06.517Z,85.90
2024-02-13T23:53:33.687Z,85.80
2024-02-13T23:56:00.878Z,85.70
2024-02-13T23:58:28.514Z,85.70
